createdAt,value
2018-08-24T00:02:53.399Z,19.82
2018-08-24T00:05:24.118Z,19.76
2018-08-24T00:07:54.640Z,19.70
2018-08-24T00:10:25.434Z,19.71
2018-08-24T00:12:55.461Z,19.76
2018-08-24T00:15:25.701Z,19.74
2018-08-24T00:17:55.765Z,19.76
2018-08-24T00:20:25.958Z,19.72
2018-08-24T00:22:56.564Z,19.66
2018-08-24T00:25:27.285Z,19.69
2018-08-24T00:27:57.985Z,19.70
2018-08-24T00:30:28.373Z,19.70
2018-08-24T00:32:58.657Z,19.67
2018-08-24T00:35:29.964Z,19.49
2018-08-24T00:38:00.526Z,19.59
2018-08-24T00:40:31.382Z,19.58
2018-08-24T00:43:01.687Z,19.55
2018-08-24T00:45:35.141Z,19.54
2018-08-24T00:48:05.415Z,19.61
2018-08-24T00:50:36.759Z,19.53
2018-08-24T00:53:07.023Z,19.44
2018-08-24T00:55:39.570Z,19.54
2018-08-24T00:58:09.796Z,19.62
2018-08-24T01:00:45.932Z,19.54
2018-08-24T01:03:16.023Z,19.60
2018-08-24T01:05:49.224Z,19.60
2018-08-24T01:08:19.527Z,19.67
2018-08-24T01:10:53.163Z,19.66
2018-08-24T01:13:25.401Z,19.41
2018-08-24T01:16:01.586Z,19.20
2018-08-24T01:18:50.681Z,18.94
2018-08-24T01:21:22.006Z,18.80
2018-08-24T01:23:54.593Z,18.88
2018-08-24T01:26:28.522Z,18.90
2018-08-24T01:29:01.819Z,18.79
2018-08-24T01:31:33.031Z,18.82
2018-08-24T01:36:46.071Z,18.72
2018-08-24T01:39:16.757Z,18.72
2018-08-24T01:41:47.240Z,18.62
2018-08-24T01:44:19.695Z,18.65
2018-08-24T01:46:49.712Z,18.62
2018-08-24T01:49:22.332Z,18.65
2018-08-24T01:51:52.521Z,18.62
2018-08-24T01:54:22.636Z,18.53
2018-08-24T01:56:53.618Z,18.56
2018-08-24T01:59:23.902Z,18.49
2018-08-24T02:01:54.222Z,18.46
2018-08-24T02:04:24.649Z,18.43
2018-08-24T02:06:55.489Z,18.47
2018-08-24T02:09:26.127Z,18.56
2018-08-24T02:11:56.541Z,18.54
2018-08-24T02:14:32.006Z,18.42
2018-08-24T02:17:02.709Z,18.30
2018-08-24T02:19:37.855Z,18.33
2018-08-24T02:22:13.393Z,18.36
2018-08-24T02:24:43.989Z,18.23
2018-08-24T02:27:14.969Z,18.33
2018-08-24T02:29:44.990Z,18.37
2018-08-24T02:32:17.664Z,18.32
2018-08-24T02:34:47.678Z,18.21
2018-08-24T02:37:23.491Z,18.30
2018-08-24T02:39:55.333Z,18.24
2018-08-24T02:42:29.844Z,18.19
2018-08-24T02:45:08.307Z,18.19
2018-08-24T02:47:47.555Z,18.19
2018-08-24T02:50:30.949Z,18.25
2018-08-24T02:53:02.469Z,18.34
2018-08-24T02:55:34.252Z,18.34
2018-08-24T02:58:06.457Z,18.35
2018-08-24T03:00:38.674Z,18.24
2018-08-24T03:03:09.322Z,18.28
2018-08-24T03:05:40.831Z,18.25
2018-08-24T03:08:14.741Z,18.31
2018-08-24T03:10:46.077Z,18.32
2018-08-24T03:13:20.793Z,18.31
2018-08-24T03:15:50.964Z,18.34
2018-08-24T03:18:23.549Z,18.34
2018-08-24T03:20:56.413Z,18.26
2018-08-24T03:23:26.438Z,18.24
2018-08-24T03:25:59.277Z,18.19
2018-08-24T03:28:29.485Z,18.10
2018-08-24T03:31:02.169Z,18.10
2018-08-24T03:33:34.009Z,18.14
2018-08-24T03:36:04.943Z,18.13
2018-08-24T03:38:37.455Z,18.12
2018-08-24T03:41:10.795Z,18.01
2018-08-24T03:43:43.257Z,18.04
2018-08-24T03:46:15.447Z,17.99
2018-08-24T03:48:45.607Z,18.03
2018-08-24T03:51:19.262Z,18.01
2018-08-24T03:53:49.440Z,18.00
2018-08-24T03:56:23.729Z,17.98
2018-08-24T03:58:54.344Z,17.96
2018-08-24T04:01:26.869Z,18.03
2018-08-24T04:03:57.608Z,18.06
2018-08-24T04:06:29.363Z,18.06
2018-08-24T04:09:02.410Z,18.10
2018-08-24T04:11:35.028Z,18.04
2018-08-24T04:14:06.978Z,18.03
2018-08-24T04:16:50.600Z,17.94
2018-08-24T04:19:27.292Z,18.00
2018-08-24T04:22:00.045Z,17.93
2018-08-24T04:24:30.825Z,18.03
2018-08-24T04:27:03.874Z,18.07
2018-08-24T04:29:34.809Z,18.00
2018-08-24T04:32:06.281Z,17.98
2018-08-24T04:34:38.081Z,17.83
2018-08-24T04:37:08.273Z,17.73
2018-08-24T04:39:38.461Z,17.65
2018-08-24T04:42:11.132Z,17.61
2018-08-24T04:44:43.637Z,17.70
2018-08-24T04:47:15.880Z,17.69
2018-08-24T04:49:49.785Z,17.68
2018-08-24T04:52:23.626Z,17.65
2018-08-24T04:55:02.116Z,17.68
2018-08-24T04:57:45.439Z,17.67
2018-08-24T05:00:19.039Z,17.57
2018-08-24T05:02:53.670Z,17.53
2018-08-24T05:05:29.003Z,17.57
2018-08-24T05:07:59.723Z,17.80
2018-08-24T05:10:30.998Z,17.73
2018-08-24T05:13:01.635Z,17.75
2018-08-24T05:15:35.967Z,17.74
2018-08-24T05:18:06.259Z,17.69
2018-08-24T05:20:37.187Z,17.72
2018-08-24T05:23:12.340Z,17.66
2018-08-24T05:25:43.277Z,17.64
2018-08-24T05:28:22.715Z,17.70
2018-08-24T05:30:54.975Z,17.61
2018-08-24T05:33:33.095Z,17.76
2018-08-24T05:36:04.436Z,17.87
2018-08-24T05:38:35.014Z,17.73
2018-08-24T05:41:11.581Z,17.77
2018-08-24T05:43:48.807Z,17.90
2018-08-24T05:46:21.601Z,17.90
2018-08-24T05:48:53.640Z,17.89
2018-08-24T05:51:25.061Z,17.87
2018-08-24T05:53:59.181Z,17.90
2018-08-24T05:56:32.976Z,18.04
2018-08-24T05:59:07.892Z,18.21
2018-08-24T06:01:40.035Z,18.24
2018-08-24T06:04:10.264Z,18.26
2018-08-24T06:06:40.682Z,18.26
2018-08-24T06:09:16.643Z,18.24
2018-08-24T06:11:49.348Z,18.03
2018-08-24T06:14:23.186Z,18.25
2018-08-24T06:17:02.196Z,18.33
2018-08-24T06:19:35.156Z,18.18
2018-08-24T06:22:12.522Z,17.87
2018-08-24T06:24:44.514Z,18.08
2018-08-24T06:27:17.280Z,18.26
2018-08-24T06:29:48.270Z,18.31
2018-08-24T06:32:18.939Z,18.32
2018-08-24T06:34:49.278Z,18.11
2018-08-24T06:37:33.964Z,17.99
2018-08-24T06:42:59.456Z,18.09
2018-08-24T06:45:30.026Z,18.12
2018-08-24T06:48:00.391Z,18.23
2018-08-24T06:50:33.956Z,18.41
2018-08-24T06:53:06.780Z,18.52
2018-08-24T06:55:38.934Z,18.59
2018-08-24T06:58:10.425Z,18.61
2018-08-24T07:00:50.208Z,18.45
2018-08-24T07:03:23.514Z,18.44
2018-08-24T07:05:54.438Z,18.47
2018-08-24T07:08:30.976Z,18.39
2018-08-24T07:11:03.847Z,18.42
2018-08-24T07:13:38.778Z,18.21
2018-08-24T07:16:12.095Z,18.03
2018-08-24T07:18:43.564Z,18.07
2018-08-24T07:21:16.063Z,18.14
2018-08-24T07:23:48.200Z,18.18
2018-08-24T07:26:22.627Z,18.24
2018-08-24T07:28:55.784Z,18.26
2018-08-24T07:31:28.248Z,17.97
2018-08-24T07:34:01.138Z,18.01
2018-08-24T07:36:33.534Z,17.91
2018-08-24T07:39:06.163Z,17.81
2018-08-24T07:41:38.622Z,17.98
2018-08-24T07:44:13.749Z,18.04
2018-08-24T07:46:48.508Z,17.97
2018-08-24T07:49:20.515Z,18.10
2018-08-24T07:51:56.562Z,17.87
2018-08-24T07:54:28.240Z,17.89
2018-08-24T07:56:58.849Z,17.93
2018-08-24T08:01:55.874Z,18.29
2018-08-24T08:04:27.302Z,18.56
2018-08-24T08:06:58.836Z,18.40
2018-08-24T08:09:30.222Z,18.22
2018-08-24T08:12:04.218Z,18.39
2018-08-24T08:14:36.626Z,18.63
2018-08-24T08:17:07.469Z,18.91
2018-08-24T08:19:37.741Z,18.78
2018-08-24T08:22:12.691Z,18.74
2018-08-24T08:24:44.609Z,18.91
2018-08-24T08:27:15.473Z,18.87
2018-08-24T08:29:55.958Z,18.78
2018-08-24T08:32:27.312Z,18.87
2018-08-24T08:34:59.988Z,18.88
2018-08-24T08:37:30.476Z,18.38
2018-08-24T08:40:03.883Z,18.33
2018-08-24T08:42:37.286Z,18.26
2018-08-24T08:45:10.172Z,18.50
2018-08-24T08:47:42.977Z,18.53
2018-08-24T08:50:13.678Z,18.67
2018-08-24T08:52:44.555Z,18.63
2018-08-24T08:55:17.107Z,18.66
2018-08-24T08:57:49.901Z,18.74
2018-08-24T09:00:24.290Z,18.53
2018-08-24T09:03:24.437Z,18.37
2018-08-24T09:05:59.464Z,18.46
2018-08-24T09:08:38.782Z,18.54
2018-08-24T09:11:10.462Z,18.61
2018-08-24T09:16:27.133Z,18.46
2018-08-24T09:21:14.565Z,18.51
2018-08-24T09:23:59.039Z,18.52
2018-08-24T09:40:06.726Z,18.33
2018-08-24T09:42:42.016Z,18.26
2018-08-24T09:45:14.709Z,18.42
2018-08-24T09:47:51.102Z,18.21
2018-08-24T09:50:27.066Z,18.40
2018-08-24T09:53:06.663Z,18.34
2018-08-24T09:55:45.190Z,18.28
2018-08-24T09:58:22.382Z,18.67
2018-08-24T10:01:05.556Z,18.83
2018-08-24T10:03:43.503Z,18.43
2018-08-24T10:06:21.411Z,18.68
2018-08-24T10:08:52.835Z,18.62
2018-08-24T10:11:25.520Z,18.68
2018-08-24T10:14:01.230Z,18.37
2018-08-24T10:16:35.564Z,18.74
2018-08-24T10:22:00.915Z,19.26
2018-08-24T10:24:33.668Z,19.18
2018-08-24T10:27:05.736Z,19.48
2018-08-24T10:29:37.795Z,19.50
2018-08-24T10:32:07.865Z,19.54
2018-08-24T10:34:38.562Z,19.46
2018-08-24T10:37:09.277Z,18.66
2018-08-24T10:39:39.096Z,17.95
2018-08-24T10:42:09.359Z,17.18
2018-08-24T10:44:39.085Z,16.97
2018-08-24T10:47:09.470Z,16.88
2018-08-24T10:49:39.250Z,16.69
2018-08-24T10:52:10.376Z,16.46
2018-08-24T10:54:42.875Z,15.95
2018-08-24T10:57:15.607Z,16.17
2018-08-24T10:59:49.545Z,15.50
2018-08-24T11:02:21.060Z,15.75
2018-08-24T11:04:51.509Z,15.70
2018-08-24T11:07:21.687Z,15.67
2018-08-24T11:09:52.293Z,15.55
2018-08-24T11:12:23.598Z,15.74
2018-08-24T11:16:02.789Z,15.72
2018-08-24T11:21:14.922Z,15.92
2018-08-24T11:23:46.103Z,15.98
2018-08-24T11:26:17.205Z,16.16
2018-08-24T11:28:49.423Z,16.43
2018-08-24T11:31:20.311Z,16.41
2018-08-24T11:33:56.401Z,16.70
2018-08-24T11:36:27.136Z,17.07
2018-08-24T11:38:57.337Z,16.92
2018-08-24T11:41:29.994Z,17.30
2018-08-24T11:44:00.684Z,17.49
2018-08-24T11:46:31.073Z,17.32
2018-08-24T11:49:03.324Z,17.19
2018-08-24T11:54:17.064Z,17.89
2018-08-24T11:56:47.808Z,17.70
2018-08-24T11:59:20.209Z,17.97
2018-08-24T12:01:51.106Z,17.79
2018-08-24T12:04:22.001Z,18.39
2018-08-24T12:06:54.621Z,18.24
2018-08-24T12:09:25.790Z,18.49
2018-08-24T12:11:57.615Z,18.20
2018-08-24T12:14:28.065Z,18.60
2018-08-24T12:16:59.477Z,18.87
2018-08-24T12:19:30.172Z,18.89
2018-08-24T12:22:04.853Z,18.73
2018-08-24T12:24:37.258Z,18.77
2018-08-24T12:27:10.132Z,18.62
2018-08-24T12:29:41.390Z,18.52
2018-08-24T12:32:12.281Z,18.44
2018-08-24T12:34:50.571Z,18.46
2018-08-24T12:59:25.507Z,19.17
2018-08-24T13:02:04.475Z,19.29
2018-08-24T13:04:38.815Z,19.41
2018-08-24T13:07:27.390Z,19.59
2018-08-24T13:09:58.901Z,19.41
2018-08-24T13:12:32.026Z,19.64
2018-08-24T13:15:08.867Z,19.32
2018-08-24T13:20:36.937Z,19.23
2018-08-24T13:23:10.969Z,19.07
2018-08-24T13:25:47.066Z,19.09
2018-08-24T13:28:20.131Z,19.01
2018-08-24T13:30:53.746Z,19.04
2018-08-24T13:33:25.717Z,19.18
2018-08-24T13:35:56.220Z,19.36
2018-08-24T13:38:29.907Z,19.43
2018-08-24T13:41:00.720Z,19.48
2018-08-24T13:43:35.672Z,18.92
2018-08-24T13:46:06.758Z,18.72
2018-08-24T13:48:37.084Z,18.61
2018-08-24T13:51:10.620Z,18.68
2018-08-24T13:53:44.267Z,18.72
2018-08-24T13:56:16.565Z,18.99
2018-08-24T13:58:53.699Z,19.07
2018-08-24T14:01:25.431Z,19.32
2018-08-24T14:03:57.147Z,19.28
2018-08-24T14:06:29.614Z,19.43
2018-08-24T14:09:00.041Z,19.54
2018-08-24T14:11:31.152Z,19.94
2018-08-24T14:14:05.586Z,19.92
2018-08-24T14:16:35.872Z,19.89
2018-08-24T14:19:06.260Z,20.04
2018-08-24T14:21:36.883Z,19.77
2018-08-24T14:24:14.668Z,19.80
2018-08-24T14:26:50.255Z,19.48
2018-08-24T14:29:21.566Z,19.54
2018-08-24T14:32:14.865Z,19.50
2018-08-24T14:34:46.340Z,19.49
2018-08-24T14:37:16.510Z,19.32
2018-08-24T14:39:46.495Z,19.14
2018-08-24T14:42:17.419Z,19.21
2018-08-24T14:44:49.334Z,19.02
2018-08-24T14:47:20.478Z,18.60
2018-08-24T14:49:50.940Z,18.59
2018-08-24T14:52:50.960Z,18.80
2018-08-24T14:58:10.596Z,18.82
2018-08-24T15:00:40.866Z,18.81
2018-08-24T15:03:12.212Z,18.73
2018-08-24T15:05:42.457Z,18.61
2018-08-24T15:08:12.511Z,18.66
2018-08-24T15:10:43.474Z,18.69
2018-08-24T15:13:13.882Z,18.82
2018-08-24T15:15:44.460Z,18.63
2018-08-24T15:18:15.952Z,18.63
2018-08-24T15:20:46.070Z,18.65
2018-08-24T15:23:17.287Z,18.75
2018-08-24T15:25:47.852Z,18.71
2018-08-24T15:28:18.103Z,18.62
2018-08-24T15:30:48.606Z,18.77
2018-08-24T15:33:18.524Z,18.84
2018-08-24T15:35:48.590Z,18.87
2018-08-24T15:38:18.792Z,18.76
2018-08-24T15:40:57.938Z,18.77
2018-08-24T15:43:35.046Z,18.78
2018-08-24T15:46:08.193Z,18.76
2018-08-24T15:48:38.572Z,18.80
2018-08-24T15:51:09.308Z,18.98
2018-08-24T15:53:39.852Z,19.12
2018-08-24T15:56:10.284Z,18.89
2018-08-24T15:58:40.560Z,18.75
2018-08-24T16:01:11.327Z,18.77
2018-08-24T16:03:43.883Z,18.79
2018-08-24T16:06:18.914Z,18.73
2018-08-24T16:08:52.649Z,18.69
2018-08-24T16:11:23.152Z,18.64
2018-08-24T16:13:55.071Z,18.36
2018-08-24T16:16:40.018Z,18.38
2018-08-24T16:21:57.629Z,18.51
2018-08-24T16:24:39.526Z,18.49
2018-08-24T16:27:16.900Z,18.40
2018-08-24T16:29:56.167Z,18.36
2018-08-24T16:32:29.446Z,18.42
2018-08-24T16:35:01.793Z,18.28
2018-08-24T16:37:33.501Z,18.37
2018-08-24T16:40:11.571Z,18.42
2018-08-24T16:42:45.544Z,18.42
2018-08-24T16:45:20.883Z,18.21
2018-08-24T16:47:53.509Z,18.24
2018-08-24T16:50:25.362Z,18.34
2018-08-24T16:52:59.167Z,18.32
2018-08-24T16:55:29.897Z,18.25
2018-08-24T16:58:10.132Z,18.27
2018-08-24T17:00:42.982Z,18.23
2018-08-24T17:03:30.377Z,18.16
2018-08-24T17:06:10.035Z,18.09
2018-08-24T17:08:49.012Z,18.02
2018-08-24T17:11:19.926Z,18.14
2018-08-24T17:14:02.016Z,18.23
2018-08-24T17:16:45.488Z,17.93
2018-08-24T17:22:20.393Z,17.99
2018-08-24T17:25:06.960Z,17.89
2018-08-24T17:27:41.031Z,17.71
2018-08-24T17:30:13.125Z,17.83
2018-08-24T17:32:43.946Z,17.95
2018-08-24T17:35:15.528Z,17.76
2018-08-24T17:37:47.317Z,17.82
2018-08-24T17:40:18.826Z,17.83
2018-08-24T17:42:50.347Z,17.62
2018-08-24T17:45:24.185Z,17.79
2018-08-24T17:48:01.504Z,17.67
2018-08-24T17:50:38.586Z,17.71
2018-08-24T17:53:13.333Z,17.61
2018-08-24T17:55:47.500Z,17.50
2018-08-24T17:58:22.940Z,17.61
2018-08-24T18:00:54.768Z,17.60
2018-08-24T18:03:27.827Z,17.61
2018-08-24T18:06:03.926Z,17.55
2018-08-24T18:08:36.684Z,17.64
2018-08-24T18:11:14.099Z,17.61
2018-08-24T18:13:47.552Z,17.58
2018-08-24T18:16:18.944Z,17.53
2018-08-24T18:18:50.597Z,17.32
2018-08-24T18:21:22.047Z,17.25
2018-08-24T18:23:57.139Z,16.91
2018-08-24T18:26:28.901Z,16.37
2018-08-24T18:29:07.969Z,15.55
2018-08-24T18:31:39.072Z,15.41
2018-08-24T18:34:09.850Z,15.33
2018-08-24T18:36:40.878Z,15.16
2018-08-24T18:39:13.753Z,15.30
2018-08-24T18:41:44.141Z,15.42
2018-08-24T18:44:15.477Z,15.13
2018-08-24T18:46:46.565Z,15.09
2018-08-24T18:49:19.357Z,14.67
2018-08-24T18:51:49.903Z,14.75
2018-08-24T18:54:23.792Z,14.77
2018-08-24T18:56:54.594Z,14.76
2018-08-24T18:59:27.167Z,14.80
2018-08-24T19:01:58.762Z,14.64
2018-08-24T19:04:31.631Z,14.64
2018-08-24T19:07:03.398Z,14.57
2018-08-24T19:09:56.073Z,14.44
2018-08-24T19:12:33.747Z,14.43
2018-08-24T19:15:09.607Z,14.50
2018-08-24T19:17:47.245Z,14.52
2018-08-24T19:20:40.088Z,14.48
2018-08-24T19:29:18.771Z,14.70
2018-08-24T19:31:49.651Z,14.95
2018-08-24T19:34:22.879Z,14.89
2018-08-24T19:36:58.289Z,14.94
2018-08-24T19:39:29.592Z,14.60
2018-08-24T19:42:06.212Z,14.58
2018-08-24T19:44:39.843Z,14.44
2018-08-24T19:47:14.710Z,14.39
2018-08-24T19:49:47.234Z,14.20
2018-08-24T19:52:19.546Z,14.08
2018-08-24T19:54:51.807Z,14.18
2018-08-24T19:57:27.140Z,14.31
2018-08-24T19:59:57.399Z,14.32
2018-08-24T20:02:28.588Z,14.23
2018-08-24T20:04:59.357Z,14.19
2018-08-24T20:07:36.416Z,14.15
2018-08-24T20:10:09.873Z,14.23
2018-08-24T20:12:42.128Z,14.09
2018-08-24T20:15:19.547Z,14.30
2018-08-24T20:17:52.970Z,14.35
2018-08-24T20:20:24.429Z,14.26
2018-08-24T20:22:57.424Z,14.32
2018-08-24T20:25:28.957Z,14.12
2018-08-24T20:28:01.365Z,14.11
2018-08-24T20:30:39.768Z,14.24
2018-08-24T20:33:12.976Z,14.15
2018-08-24T20:35:59.501Z,14.09
2018-08-24T20:38:34.623Z,14.14
2018-08-24T20:43:40.331Z,14.09
2018-08-24T20:46:11.779Z,13.91
2018-08-24T20:48:42.471Z,13.95
2018-08-24T20:51:16.838Z,13.87
2018-08-24T20:53:47.969Z,13.99
2018-08-24T20:56:19.670Z,14.20
2018-08-24T20:58:50.902Z,13.99
2018-08-24T21:01:22.352Z,14.01
2018-08-24T21:03:54.869Z,14.05
2018-08-24T21:06:26.353Z,13.98
2018-08-24T21:08:58.108Z,14.10
2018-08-24T21:11:28.246Z,14.02
2018-08-24T21:13:58.504Z,14.33
2018-08-24T21:16:30.190Z,14.64
2018-08-24T21:19:02.023Z,14.56
2018-08-24T21:21:32.350Z,14.42
2018-08-24T21:24:03.187Z,14.45
2018-08-24T21:26:33.792Z,14.45
2018-08-24T21:29:04.543Z,14.59
2018-08-24T21:31:36.898Z,14.61
2018-08-24T21:34:10.402Z,14.44
2018-08-24T21:36:40.915Z,14.32
2018-08-24T21:39:12.687Z,14.30
2018-08-24T21:41:44.610Z,14.20
2018-08-24T21:44:17.397Z,14.26
2018-08-24T21:46:47.475Z,14.25
2018-08-24T21:49:19.541Z,14.21
2018-08-24T21:51:50.415Z,14.16
2018-08-24T21:54:23.815Z,14.38
2018-08-24T21:57:13.754Z,14.36
2018-08-24T22:02:51.429Z,14.48
2018-08-24T22:05:22.479Z,14.17
2018-08-24T22:07:55.071Z,14.11
2018-08-24T22:10:25.731Z,14.20
2018-08-24T22:12:58.214Z,14.22
2018-08-24T22:15:31.507Z,14.06
2018-08-24T22:18:01.805Z,13.98
2018-08-24T22:20:33.346Z,14.03
2018-08-24T22:23:05.176Z,14.03
2018-08-24T22:25:35.378Z,13.78
2018-08-24T22:28:05.803Z,13.79
2018-08-24T22:30:38.194Z,13.45
2018-08-24T22:33:08.514Z,13.41
2018-08-24T22:35:40.148Z,13.31
2018-08-24T22:38:12.902Z,13.32
2018-08-24T22:40:43.277Z,13.27
2018-08-24T22:43:20.608Z,13.25
2018-08-24T22:45:53.148Z,13.37
2018-08-24T22:49:50.510Z,13.68
2018-08-24T22:52:22.248Z,13.67
2018-08-24T22:54:54.339Z,13.36
2018-08-24T22:57:24.774Z,13.34
2018-08-24T22:59:55.897Z,13.37
2018-08-24T23:02:26.113Z,13.43
2018-08-24T23:04:58.007Z,13.41
2018-08-24T23:07:29.701Z,13.40
2018-08-24T23:12:41.056Z,13.48
2018-08-24T23:15:12.501Z,13.37
2018-08-24T23:17:42.672Z,13.42
2018-08-24T23:20:14.325Z,13.53
2018-08-24T23:22:44.780Z,13.46
2018-08-24T23:25:15.896Z,13.42
2018-08-24T23:27:48.632Z,13.36
2018-08-24T23:30:19.138Z,13.40
2018-08-24T23:32:51.581Z,13.53
2018-08-24T23:35:23.580Z,13.39
2018-08-24T23:37:55.399Z,13.42
2018-08-24T23:40:26.384Z,13.51
2018-08-24T23:42:58.821Z,13.46
2018-08-24T23:45:29.509Z,13.33
2018-08-24T23:48:01.420Z,13.34
2018-08-24T23:50:33.666Z,13.31
2018-08-24T23:53:06.099Z,13.22
2018-08-24T23:55:36.819Z,13.24
2018-08-24T23:58:11.454Z,13.08
